sensor_id;sensor_type;location;lat;lon;timestamp;pressure;altitude;pressure_sealevel;temperature
66403;BMP180;53212;52.112;5.144;2023-08-24T00:00:45;101854.20;;;17.80
66403;BMP180;53212;52.112;5.144;2023-08-24T00:03:10;101860.20;;;17.72
66403;BMP180;53212;52.112;5.144;2023-08-24T00:05:36;101862.20;;;17.70
66403;BMP180;53212;52.112;5.144;2023-08-24T00:08:06;101856.80;;;17.70
66403;BMP180;53212;52.112;5.144;2023-08-24T00:10:31;101862.00;;;17.60
66403;BMP180;53212;52.112;5.144;2023-08-24T00:12:57;101859.80;;;17.60
66403;BMP180;53212;52.112;5.144;2023-08-24T00:15:22;101857.80;;;17.60
66403;BMP180;53212;52.112;5.144;2023-08-24T00:17:48;101854.20;;;17.60
66403;BMP180;53212;52.112;5.144;2023-08-24T00:20:13;101861.60;;;17.60
66403;BMP180;53212;52.112;5.144;2023-08-24T00:22:39;101862.00;;;17.60
66403;BMP180;53212;52.112;5.144;2023-08-24T00:25:07;101852.60;;;17.62
66403;BMP180;53212;52.112;5.144;2023-08-24T00:27:33;101841.40;;;17.70
66403;BMP180;53212;52.112;5.144;2023-08-24T00:29:59;101828.00;;;17.80
66403;BMP180;53212;52.112;5.144;2023-08-24T00:32:24;101819.60;;;17.80
66403;BMP180;53212;52.112;5.144;2023-08-24T00:34:50;101820.80;;;17.90
66403;BMP180;53212;52.112;5.144;2023-08-24T00:37:15;101823.60;;;17.90
66403;BMP180;53212;52.112;5.144;2023-08-24T00:39:41;101822.40;;;17.90
66403;BMP180;53212;52.112;5.144;2023-08-24T00:42:06;101820.60;;;17.90
66403;BMP180;53212;52.112;5.144;2023-08-24T00:44:32;101815.20;;;17.88
66403;BMP180;53212;52.112;5.144;2023-08-24T00:46:59;101815.80;;;17.80
66403;BMP180;53212;52.112;5.144;2023-08-24T00:49:25;101814.20;;;17.82
66403;BMP180;53212;52.112;5.144;2023-08-24T00:51:51;101821.60;;;17.86
66403;BMP180;53212;52.112;5.144;2023-08-24T00:54:16;101818.20;;;17.80
66403;BMP180;53212;52.112;5.144;2023-08-24T00:56:43;101822.00;;;17.82
66403;BMP180;53212;52.112;5.144;2023-08-24T00:59:08;101825.60;;;17.90
66403;BMP180;53212;52.112;5.144;2023-08-24T01:01:34;101825.80;;;17.90
66403;BMP180;53212;52.112;5.144;2023-08-24T01:04:00;101825.60;;;17.80
66403;BMP180;53212;52.112;5.144;2023-08-24T01:06:25;101818.60;;;17.80
66403;BMP180;53212;52.112;5.144;2023-08-24T01:08:51;101820.60;;;17.80
66403;BMP180;53212;52.112;5.144;2023-08-24T01:11:49;101817.80;;;17.70
66403;BMP180;53212;52.112;5.144;2023-08-24T01:17:05;101817.00;;;17.70
66403;BMP180;53212;52.112;5.144;2023-08-24T01:19:40;101821.40;;;17.68
66403;BMP180;53212;52.112;5.144;2023-08-24T01:22:32;101828.40;;;17.70
66403;BMP180;53212;52.112;5.144;2023-08-24T01:25:12;101820.80;;;17.68
66403;BMP180;53212;52.112;5.144;2023-08-24T01:27:39;101819.60;;;17.70
66403;BMP180;53212;52.112;5.144;2023-08-24T01:30:06;101816.80;;;17.70
66403;BMP180;53212;52.112;5.144;2023-08-24T01:32:34;101817.00;;;17.78
66403;BMP180;53212;52.112;5.144;2023-08-24T01:35:07;101819.60;;;17.70
66403;BMP180;53212;52.112;5.144;2023-08-24T01:37:34;101829.40;;;17.72
66403;BMP180;53212;52.112;5.144;2023-08-24T01:40:05;101835.20;;;17.80
66403;BMP180;53212;52.112;5.144;2023-08-24T01:43:23;101831.20;;;17.80
66403;BMP180;53212;52.112;5.144;2023-08-24T01:45:24;101818.80;;;17.80
66403;BMP180;53212;52.112;5.144;2023-08-24T01:47:51;101813.40;;;17.86
66403;BMP180;53212;52.112;5.144;2023-08-24T01:50:17;101812.20;;;17.88
66403;BMP180;53212;52.112;5.144;2023-08-24T01:52:43;101813.20;;;17.90
66403;BMP180;53212;52.112;5.144;2023-08-24T01:55:10;101811.20;;;17.90
66403;BMP180;53212;52.112;5.144;2023-08-24T01:57:37;101806.80;;;17.90
66403;BMP180;53212;52.112;5.144;2023-08-24T02:00:04;101797.80;;;17.90
66403;BMP180;53212;52.112;5.144;2023-08-24T02:02:31;101799.60;;;17.90
66403;BMP180;53212;52.112;5.144;2023-08-24T02:04:58;101802.60;;;17.90
66403;BMP180;53212;52.112;5.144;2023-08-24T02:07:24;101808.00;;;17.90
66403;BMP180;53212;52.112;5.144;2023-08-24T02:09:49;101806.00;;;17.82
66403;BMP180;53212;52.112;5.144;2023-08-24T02:12:15;101801.00;;;17.80
66403;BMP180;53212;52.112;5.144;2023-08-24T02:14:40;101793.20;;;17.80
66403;BMP180;53212;52.112;5.144;2023-08-24T02:17:06;101782.80;;;17.80
66403;BMP180;53212;52.112;5.144;2023-08-24T02:19:31;101775.40;;;17.84
66403;BMP180;53212;52.112;5.144;2023-08-24T02:21:57;101764.60;;;17.88
66403;BMP180;53212;52.112;5.144;2023-08-24T02:24:22;101755.40;;;17.90
66403;BMP180;53212;52.112;5.144;2023-08-24T02:26:48;101757.60;;;17.82
66403;BMP180;53212;52.112;5.144;2023-08-24T02:29:13;101754.80;;;17.82
66403;BMP180;53212;52.112;5.144;2023-08-24T02:31:39;101745.60;;;17.82
66403;BMP180;53212;52.112;5.144;2023-08-24T02:34:06;101736.80;;;17.80
66403;BMP180;53212;52.112;5.144;2023-08-24T02:36:31;101732.00;;;17.80
66403;BMP180;53212;52.112;5.144;2023-08-24T02:38:59;101727.80;;;17.80
66403;BMP180;53212;52.112;5.144;2023-08-24T02:41:25;101722.60;;;17.80
66403;BMP180;53212;52.112;5.144;2023-08-24T02:43:51;101718.20;;;17.80
66403;BMP180;53212;52.112;5.144;2023-08-24T02:46:17;101709.20;;;17.80
66403;BMP180;53212;52.112;5.144;2023-08-24T02:48:44;101701.60;;;17.70
66403;BMP180;53212;52.112;5.144;2023-08-24T02:51:10;101693.40;;;17.70
66403;BMP180;53212;52.112;5.144;2023-08-24T02:53:36;101698.80;;;17.70
66403;BMP180;53212;52.112;5.144;2023-08-24T02:56:02;101707.60;;;17.60
66403;BMP180;53212;52.112;5.144;2023-08-24T02:58:28;101716.00;;;17.50
66403;BMP180;53212;52.112;5.144;2023-08-24T03:00:55;101718.20;;;17.48
66403;BMP180;53212;52.112;5.144;2023-08-24T03:03:20;101717.20;;;17.40
66403;BMP180;53212;52.112;5.144;2023-08-24T03:08:23;101710.60;;;17.44
66403;BMP180;53212;52.112;5.144;2023-08-24T03:10:48;101703.00;;;17.50
66403;BMP180;53212;52.112;5.144;2023-08-24T03:13:14;101704.40;;;17.50
66403;BMP180;53212;52.112;5.144;2023-08-24T03:15:39;101711.20;;;17.50
66403;BMP180;53212;52.112;5.144;2023-08-24T03:18:05;101706.80;;;17.50
66403;BMP180;53212;52.112;5.144;2023-08-24T03:20:30;101700.00;;;17.40
66403;BMP180;53212;52.112;5.144;2023-08-24T03:22:56;101690.80;;;17.40
66403;BMP180;53212;52.112;5.144;2023-08-24T03:25:22;101688.80;;;17.32
66403;BMP180;53212;52.112;5.144;2023-08-24T03:27:48;101684.00;;;17.30
66403;BMP180;53212;52.112;5.144;2023-08-24T03:30:14;101682.00;;;17.20
66403;BMP180;53212;52.112;5.144;2023-08-24T03:32:40;101683.40;;;17.30
66403;BMP180;53212;52.112;5.144;2023-08-24T03:35:06;101687.60;;;17.30
66403;BMP180;53212;52.112;5.144;2023-08-24T03:37:32;101680.80;;;17.30
66403;BMP180;53212;52.112;5.144;2023-08-24T03:39:58;101669.40;;;17.20
66403;BMP180;53212;52.112;5.144;2023-08-24T03:42:23;101670.20;;;17.10
66403;BMP180;53212;52.112;5.144;2023-08-24T03:44:49;101664.00;;;17.10
66403;BMP180;53212;52.112;5.144;2023-08-24T03:47:14;101661.40;;;17.10
66403;BMP180;53212;52.112;5.144;2023-08-24T03:49:43;101660.40;;;17.10
66403;BMP180;53212;52.112;5.144;2023-08-24T03:52:09;101655.00;;;17.10
66403;BMP180;53212;52.112;5.144;2023-08-24T03:54:34;101653.00;;;17.10
66403;BMP180;53212;52.112;5.144;2023-08-24T03:57:02;101662.60;;;17.00
66403;BMP180;53212;52.112;5.144;2023-08-24T03:59:27;101667.80;;;16.92
66403;BMP180;53212;52.112;5.144;2023-08-24T04:01:53;101674.20;;;16.90
66403;BMP180;53212;52.112;5.144;2023-08-24T04:04:18;101673.00;;;16.90
66403;BMP180;53212;52.112;5.144;2023-08-24T04:06:44;101668.00;;;16.90
66403;BMP180;53212;52.112;5.144;2023-08-24T04:09:09;101667.00;;;16.90
66403;BMP180;53212;52.112;5.144;2023-08-24T04:11:35;101656.00;;;16.80
66403;BMP180;53212;52.112;5.144;2023-08-24T04:14:01;101663.40;;;16.80
66403;BMP180;53212;52.112;5.144;2023-08-24T04:16:27;101665.20;;;16.84
66403;BMP180;53212;52.112;5.144;2023-08-24T04:18:52;101669.60;;;16.86
66403;BMP180;53212;52.112;5.144;2023-08-24T04:21:17;101668.60;;;16.90
66403;BMP180;53212;52.112;5.144;2023-08-24T04:23:43;101666.60;;;16.88
66403;BMP180;53212;52.112;5.144;2023-08-24T04:26:13;101674.00;;;16.90
66403;BMP180;53212;52.112;5.144;2023-08-24T04:28:38;101678.40;;;16.90
66403;BMP180;53212;52.112;5.144;2023-08-24T04:31:04;101677.80;;;16.90
66403;BMP180;53212;52.112;5.144;2023-08-24T04:33:29;101679.20;;;16.90
66403;BMP180;53212;52.112;5.144;2023-08-24T04:35:55;101675.80;;;16.90
66403;BMP180;53212;52.112;5.144;2023-08-24T04:38:20;101677.40;;;16.90
66403;BMP180;53212;52.112;5.144;2023-08-24T04:40:53;101677.20;;;16.88
66403;BMP180;53212;52.112;5.144;2023-08-24T04:43:20;101671.80;;;16.80
66403;BMP180;53212;52.112;5.144;2023-08-24T04:45:49;101674.80;;;16.80
66403;BMP180;53212;52.112;5.144;2023-08-24T04:48:18;101671.80;;;16.80
66403;BMP180;53212;52.112;5.144;2023-08-24T04:50:45;101667.80;;;16.80
66403;BMP180;53212;52.112;5.144;2023-08-24T04:53:17;101667.80;;;16.76
66403;BMP180;53212;52.112;5.144;2023-08-24T04:55:43;101664.00;;;16.80
66403;BMP180;53212;52.112;5.144;2023-08-24T04:58:09;101672.40;;;16.80
66403;BMP180;53212;52.112;5.144;2023-08-24T05:00:36;101669.60;;;16.80
66403;BMP180;53212;52.112;5.144;2023-08-24T05:03:06;101669.80;;;16.90
66403;BMP180;53212;52.112;5.144;2023-08-24T05:05:33;101672.80;;;16.90
66403;BMP180;53212;52.112;5.144;2023-08-24T05:08:01;101668.20;;;16.90
66403;BMP180;53212;52.112;5.144;2023-08-24T05:10:30;101663.80;;;16.96
66403;BMP180;53212;52.112;5.144;2023-08-24T05:12:56;101667.00;;;17.00
66403;BMP180;53212;52.112;5.144;2023-08-24T05:15:22;101658.80;;;17.02
66403;BMP180;53212;52.112;5.144;2023-08-24T05:17:47;101653.20;;;17.10
66403;BMP180;53212;52.112;5.144;2023-08-24T05:20:13;101643.20;;;17.20
66403;BMP180;53212;52.112;5.144;2023-08-24T05:22:39;101629.00;;;17.28
66403;BMP180;53212;52.112;5.144;2023-08-24T05:25:05;101628.80;;;17.34
66403;BMP180;53212;52.112;5.144;2023-08-24T05:27:31;101627.40;;;17.40
66403;BMP180;53212;52.112;5.144;2023-08-24T05:29:57;101621.20;;;17.50
66403;BMP180;53212;52.112;5.144;2023-08-24T05:32:22;101620.00;;;17.50
66403;BMP180;53212;52.112;5.144;2023-08-24T05:34:48;101617.60;;;17.56
66403;BMP180;53212;52.112;5.144;2023-08-24T05:37:14;101610.60;;;17.60
66403;BMP180;53212;52.112;5.144;2023-08-24T05:39:39;101604.60;;;17.70
66403;BMP180;53212;52.112;5.144;2023-08-24T05:42:05;101600.00;;;17.70
66403;BMP180;53212;52.112;5.144;2023-08-24T05:44:31;101590.20;;;17.80
66403;BMP180;53212;52.112;5.144;2023-08-24T05:46:56;101583.60;;;17.90
66403;BMP180;53212;52.112;5.144;2023-08-24T05:49:22;101589.80;;;18.00
66403;BMP180;53212;52.112;5.144;2023-08-24T05:51:50;101586.40;;;18.02
66403;BMP180;53212;52.112;5.144;2023-08-24T05:54:16;101594.60;;;18.10
66403;BMP180;53212;52.112;5.144;2023-08-24T05:56:47;101596.20;;;18.18
66403;BMP180;53212;52.112;5.144;2023-08-24T05:59:13;101597.00;;;18.28
66403;BMP180;53212;52.112;5.144;2023-08-24T06:01:39;101596.00;;;18.40
66403;BMP180;53212;52.112;5.144;2023-08-24T06:04:05;101598.40;;;18.58
66403;BMP180;53212;52.112;5.144;2023-08-24T06:06:31;101595.20;;;18.70
66403;BMP180;53212;52.112;5.144;2023-08-24T06:08:56;101585.60;;;18.80
66403;BMP180;53212;52.112;5.144;2023-08-24T06:11:22;101581.80;;;18.90
66403;BMP180;53212;52.112;5.144;2023-08-24T06:13:48;101582.20;;;19.00
66403;BMP180;53212;52.112;5.144;2023-08-24T06:16:14;101576.00;;;19.10
66403;BMP180;53212;52.112;5.144;2023-08-24T06:18:40;101577.00;;;19.18
66403;BMP180;53212;52.112;5.144;2023-08-24T06:21:05;101574.60;;;19.20
66403;BMP180;53212;52.112;5.144;2023-08-24T06:23:31;101563.60;;;19.30
66403;BMP180;53212;52.112;5.144;2023-08-24T06:25:56;101554.40;;;19.40
66403;BMP180;53212;52.112;5.144;2023-08-24T06:28:22;101554.80;;;19.48
66403;BMP180;53212;52.112;5.144;2023-08-24T06:30:47;101550.80;;;19.50
66403;BMP180;53212;52.112;5.144;2023-08-24T06:33:13;101554.20;;;19.60
66403;BMP180;53212;52.112;5.144;2023-08-24T06:35:40;101560.20;;;19.72
66403;BMP180;53212;52.112;5.144;2023-08-24T06:38:05;101559.60;;;20.10
66403;BMP180;53212;52.112;5.144;2023-08-24T06:40:31;101546.40;;;20.38
66403;BMP180;53212;52.112;5.144;2023-08-24T06:42:57;101538.20;;;20.40
66403;BMP180;53212;52.112;5.144;2023-08-24T06:45:23;101535.60;;;20.50
66403;BMP180;53212;52.112;5.144;2023-08-24T06:47:48;101531.60;;;20.50
66403;BMP180;53212;52.112;5.144;2023-08-24T06:50:15;101527.20;;;20.50
66403;BMP180;53212;52.112;5.144;2023-08-24T06:52:41;101517.20;;;20.50
66403;BMP180;53212;52.112;5.144;2023-08-24T06:55:09;101521.20;;;20.56
66403;BMP180;53212;52.112;5.144;2023-08-24T06:57:35;101521.60;;;20.60
66403;BMP180;53212;52.112;5.144;2023-08-24T07:00:01;101521.80;;;20.60
66403;BMP180;53212;52.112;5.144;2023-08-24T07:02:26;101529.00;;;20.70
66403;BMP180;53212;52.112;5.144;2023-08-24T07:04:52;101532.40;;;20.72
66403;BMP180;53212;52.112;5.144;2023-08-24T07:07:17;101540.20;;;20.80
66403;BMP180;53212;52.112;5.144;2023-08-24T07:09:43;101529.80;;;20.90
66403;BMP180;53212;52.112;5.144;2023-08-24T07:12:09;101516.20;;;21.00
66403;BMP180;53212;52.112;5.144;2023-08-24T07:14:38;101517.80;;;21.02
66403;BMP180;53212;52.112;5.144;2023-08-24T07:17:05;101517.00;;;21.10
66403;BMP180;53212;52.112;5.144;2023-08-24T07:19:31;101513.00;;;21.20
66403;BMP180;53212;52.112;5.144;2023-08-24T07:21:57;101516.80;;;21.20
66403;BMP180;53212;52.112;5.144;2023-08-24T07:24:22;101519.40;;;21.30
66403;BMP180;53212;52.112;5.144;2023-08-24T07:26:52;101515.20;;;21.30
66403;BMP180;53212;52.112;5.144;2023-08-24T07:29:20;101516.80;;;21.42
66403;BMP180;53212;52.112;5.144;2023-08-24T07:31:45;101525.60;;;21.58
66403;BMP180;53212;52.112;5.144;2023-08-24T07:34:11;101521.60;;;21.60
66403;BMP180;53212;52.112;5.144;2023-08-24T07:36:36;101520.80;;;21.70
66403;BMP180;53212;52.112;5.144;2023-08-24T07:39:02;101518.40;;;21.70
66403;BMP180;53212;52.112;5.144;2023-08-24T07:41:27;101525.40;;;21.80
66403;BMP180;53212;52.112;5.144;2023-08-24T07:43:53;101516.20;;;21.80
66403;BMP180;53212;52.112;5.144;2023-08-24T07:46:18;101516.20;;;21.90
66403;BMP180;53212;52.112;5.144;2023-08-24T07:48:44;101515.60;;;21.98
66403;BMP180;53212;52.112;5.144;2023-08-24T07:51:09;101518.00;;;22.00
66403;BMP180;53212;52.112;5.144;2023-08-24T07:53:35;101516.60;;;22.10
66403;BMP180;53212;52.112;5.144;2023-08-24T07:56:00;101518.60;;;22.20
66403;BMP180;53212;52.112;5.144;2023-08-24T07:58:27;101515.60;;;22.30
66403;BMP180;53212;52.112;5.144;2023-08-24T08:00:52;101517.80;;;22.50
66403;BMP180;53212;52.112;5.144;2023-08-24T08:03:19;101515.60;;;22.60
66403;BMP180;53212;52.112;5.144;2023-08-24T08:05:46;101515.00;;;22.80
66403;BMP180;53212;52.112;5.144;2023-08-24T08:08:13;101516.00;;;23.02
66403;BMP180;53212;52.112;5.144;2023-08-24T08:10:39;101512.00;;;23.30
66403;BMP180;53212;52.112;5.144;2023-08-24T08:13:04;101501.20;;;23.58
66403;BMP180;53212;52.112;5.144;2023-08-24T08:15:30;101496.40;;;23.78
66403;BMP180;53212;52.112;5.144;2023-08-24T08:17:55;101494.60;;;23.90
66403;BMP180;53212;52.112;5.144;2023-08-24T08:20:21;101494.40;;;24.00
66403;BMP180;53212;52.112;5.144;2023-08-24T08:22:46;101488.40;;;24.10
66403;BMP180;53212;52.112;5.144;2023-08-24T08:25:12;101491.80;;;24.20
66403;BMP180;53212;52.112;5.144;2023-08-24T08:27:38;101490.00;;;24.30
66403;BMP180;53212;52.112;5.144;2023-08-24T08:30:05;101487.00;;;24.42
66403;BMP180;53212;52.112;5.144;2023-08-24T08:32:31;101479.40;;;24.50
66403;BMP180;53212;52.112;5.144;2023-08-24T08:34:56;101473.20;;;24.60
66403;BMP180;53212;52.112;5.144;2023-08-24T08:37:26;101481.40;;;24.60
66403;BMP180;53212;52.112;5.144;2023-08-24T08:39:52;101483.20;;;24.70
66403;BMP180;53212;52.112;5.144;2023-08-24T08:42:17;101481.80;;;24.80
66403;BMP180;53212;52.112;5.144;2023-08-24T08:44:46;101469.20;;;24.90
66403;BMP180;53212;52.112;5.144;2023-08-24T08:47:13;101461.20;;;25.00
66403;BMP180;53212;52.112;5.144;2023-08-24T08:49:39;101461.00;;;25.10
66403;BMP180;53212;52.112;5.144;2023-08-24T08:52:06;101449.40;;;25.20
66403;BMP180;53212;52.112;5.144;2023-08-24T08:54:32;101443.40;;;25.20
66403;BMP180;53212;52.112;5.144;2023-08-24T08:57:01;101442.60;;;25.30
66403;BMP180;53212;52.112;5.144;2023-08-24T08:59:30;101436.00;;;25.40
66403;BMP180;53212;52.112;5.144;2023-08-24T09:02:01;101433.60;;;25.50
66403;BMP180;53212;52.112;5.144;2023-08-24T09:04:29;101435.40;;;25.70
66403;BMP180;53212;52.112;5.144;2023-08-24T09:06:55;101430.60;;;25.80
66403;BMP180;53212;52.112;5.144;2023-08-24T09:09:26;101431.00;;;25.90
66403;BMP180;53212;52.112;5.144;2023-08-24T09:11:52;101433.60;;;26.00
66403;BMP180;53212;52.112;5.144;2023-08-24T09:14:18;101430.00;;;26.10
66403;BMP180;53212;52.112;5.144;2023-08-24T09:16:44;101430.60;;;26.20
66403;BMP180;53212;52.112;5.144;2023-08-24T09:19:13;101425.00;;;26.40
66403;BMP180;53212;52.112;5.144;2023-08-24T09:21:39;101412.20;;;26.60
66403;BMP180;53212;52.112;5.144;2023-08-24T09:24:07;101408.80;;;26.70
66403;BMP180;53212;52.112;5.144;2023-08-24T09:26:37;101419.00;;;26.84
66403;BMP180;53212;52.112;5.144;2023-08-24T09:29:15;101415.20;;;27.02
66403;BMP180;53212;52.112;5.144;2023-08-24T09:31:42;101408.40;;;27.20
66403;BMP180;53212;52.112;5.144;2023-08-24T09:34:11;101407.80;;;27.30
66403;BMP180;53212;52.112;5.144;2023-08-24T09:36:38;101399.00;;;27.40
66403;BMP180;53212;52.112;5.144;2023-08-24T09:39:07;101400.20;;;27.40
66403;BMP180;53212;52.112;5.144;2023-08-24T09:41:48;101403.60;;;27.40
66403;BMP180;53212;52.112;5.144;2023-08-24T09:44:13;101405.40;;;27.60
66403;BMP180;53212;52.112;5.144;2023-08-24T09:46:40;101407.40;;;27.78
66403;BMP180;53212;52.112;5.144;2023-08-24T09:49:08;101410.60;;;27.82
66403;BMP180;53212;52.112;5.144;2023-08-24T09:51:35;101402.80;;;27.92
66403;BMP180;53212;52.112;5.144;2023-08-24T09:54:06;101408.80;;;28.10
66403;BMP180;53212;52.112;5.144;2023-08-24T09:56:43;101407.20;;;28.10
66403;BMP180;53212;52.112;5.144;2023-08-24T09:59:13;101412.20;;;28.10
66403;BMP180;53212;52.112;5.144;2023-08-24T10:01:45;101411.60;;;28.10
66403;BMP180;53212;52.112;5.144;2023-08-24T10:04:14;101410.60;;;27.96
66403;BMP180;53212;52.112;5.144;2023-08-24T10:06:40;101410.00;;;27.80
66403;BMP180;53212;52.112;5.144;2023-08-24T10:09:13;101419.20;;;27.58
66403;BMP180;53212;52.112;5.144;2023-08-24T10:11:45;101425.40;;;27.20
66403;BMP180;53212;52.112;5.144;2023-08-24T10:14:24;101428.80;;;26.90
66403;BMP180;53212;52.112;5.144;2023-08-24T10:16:52;101433.20;;;26.70
66403;BMP180;53212;52.112;5.144;2023-08-24T10:19:18;101433.00;;;26.40
66403;BMP180;53212;52.112;5.144;2023-08-24T10:21:45;101428.20;;;26.12
66403;BMP180;53212;52.112;5.144;2023-08-24T10:24:12;101425.00;;;25.88
66403;BMP180;53212;52.112;5.144;2023-08-24T10:26:39;101421.80;;;25.60
66403;BMP180;53212;52.112;5.144;2023-08-24T10:29:06;101421.40;;;25.40
66403;BMP180;53212;52.112;5.144;2023-08-24T10:31:31;101413.80;;;25.10
66403;BMP180;53212;52.112;5.144;2023-08-24T10:33:58;101416.20;;;24.90
66403;BMP180;53212;52.112;5.144;2023-08-24T10:36:24;101408.80;;;24.80
66403;BMP180;53212;52.112;5.144;2023-08-24T10:38:55;101410.00;;;24.60
66403;BMP180;53212;52.112;5.144;2023-08-24T10:41:20;101407.40;;;24.60
66403;BMP180;53212;52.112;5.144;2023-08-24T10:43:50;101404.60;;;24.58
66403;BMP180;53212;52.112;5.144;2023-08-24T10:46:16;101399.00;;;24.58
66403;BMP180;53212;52.112;5.144;2023-08-24T10:54:00;101400.80;;;25.00
66403;BMP180;53212;52.112;5.144;2023-08-24T10:56:39;101392.80;;;25.20
66403;BMP180;53212;52.112;5.144;2023-08-24T11:04:17;101388.60;;;25.50
66403;BMP180;53212;52.112;5.144;2023-08-24T11:06:54;101383.80;;;25.50
66403;BMP180;53212;52.112;5.144;2023-08-24T11:09:23;101388.40;;;25.60
66403;BMP180;53212;52.112;5.144;2023-08-24T11:12:00;101384.60;;;25.50
66403;BMP180;53212;52.112;5.144;2023-08-24T11:14:27;101378.80;;;25.60
66403;BMP180;53212;52.112;5.144;2023-08-24T11:17:00;101367.80;;;25.80
66403;BMP180;53212;52.112;5.144;2023-08-24T11:19:27;101368.80;;;26.00
66403;BMP180;53212;52.112;5.144;2023-08-24T11:21:53;101370.80;;;26.20
66403;BMP180;53212;52.112;5.144;2023-08-24T11:24:19;101375.20;;;26.40
66403;BMP180;53212;52.112;5.144;2023-08-24T11:26:47;101365.60;;;26.50
66403;BMP180;53212;52.112;5.144;2023-08-24T11:29:13;101353.60;;;26.60
66403;BMP180;53212;52.112;5.144;2023-08-24T11:31:39;101350.20;;;26.74
66403;BMP180;53212;52.112;5.144;2023-08-24T11:34:05;101333.00;;;26.90
66403;BMP180;53212;52.112;5.144;2023-08-24T11:36:46;101324.20;;;27.00
66403;BMP180;53212;52.112;5.144;2023-08-24T11:39:16;101323.80;;;27.00
66403;BMP180;53212;52.112;5.144;2023-08-24T11:44:22;101330.80;;;27.10
66403;BMP180;53212;52.112;5.144;2023-08-24T11:46:48;101325.20;;;27.10
66403;BMP180;53212;52.112;5.144;2023-08-24T11:49:13;101326.20;;;27.14
66403;BMP180;53212;52.112;5.144;2023-08-24T11:51:39;101328.80;;;27.26
66403;BMP180;53212;52.112;5.144;2023-08-24T11:54:05;101333.00;;;27.30
66403;BMP180;53212;52.112;5.144;2023-08-24T11:56:31;101333.00;;;27.40
66403;BMP180;53212;52.112;5.144;2023-08-24T11:58:57;101336.80;;;27.50
66403;BMP180;53212;52.112;5.144;2023-08-24T12:01:22;101343.80;;;27.50
66403;BMP180;53212;52.112;5.144;2023-08-24T12:03:48;101340.80;;;27.60
66403;BMP180;53212;52.112;5.144;2023-08-24T12:06:15;101347.00;;;27.80
66403;BMP180;53212;52.112;5.144;2023-08-24T12:08:46;101342.80;;;28.00
66403;BMP180;53212;52.112;5.144;2023-08-24T12:11:21;101330.20;;;28.40
66403;BMP180;53212;52.112;5.144;2023-08-24T12:13:53;101315.00;;;28.56
66403;BMP180;53212;52.112;5.144;2023-08-24T12:16:20;101299.80;;;28.60
66403;BMP180;53212;52.112;5.144;2023-08-24T12:18:57;101294.20;;;28.60
66403;BMP180;53212;52.112;5.144;2023-08-24T12:21:25;101288.60;;;28.60
66403;BMP180;53212;52.112;5.144;2023-08-24T12:24:13;101286.00;;;28.40
66403;BMP180;53212;52.112;5.144;2023-08-24T12:26:39;101271.80;;;28.20
66403;BMP180;53212;52.112;5.144;2023-08-24T12:29:06;101268.00;;;28.00
66403;BMP180;53212;52.112;5.144;2023-08-24T12:31:32;101260.20;;;27.90
66403;BMP180;53212;52.112;5.144;2023-08-24T12:34:06;101257.00;;;27.80
66403;BMP180;53212;52.112;5.144;2023-08-24T12:36:36;101252.80;;;27.80
66403;BMP180;53212;52.112;5.144;2023-08-24T12:39:02;101251.40;;;27.80
66403;BMP180;53212;52.112;5.144;2023-08-24T12:41:31;101247.80;;;27.90
66403;BMP180;53212;52.112;5.144;2023-08-24T12:43:57;101238.00;;;28.10
66403;BMP180;53212;52.112;5.144;2023-08-24T12:46:23;101228.20;;;28.30
66403;BMP180;53212;52.112;5.144;2023-08-24T12:48:49;101221.60;;;28.50
66403;BMP180;53212;52.112;5.144;2023-08-24T12:51:15;101210.40;;;28.62
66403;BMP180;53212;52.112;5.144;2023-08-24T12:53:41;101199.00;;;28.72
66403;BMP180;53212;52.112;5.144;2023-08-24T12:56:07;101194.80;;;28.80
66403;BMP180;53212;52.112;5.144;2023-08-24T12:58:32;101188.20;;;28.84
66403;BMP180;53212;52.112;5.144;2023-08-24T13:00:59;101183.20;;;29.00
66403;BMP180;53212;52.112;5.144;2023-08-24T13:03:24;101178.80;;;28.98
66403;BMP180;53212;52.112;5.144;2023-08-24T13:05:50;101182.80;;;28.90
66403;BMP180;53212;52.112;5.144;2023-08-24T13:08:15;101189.80;;;28.90
66403;BMP180;53212;52.112;5.144;2023-08-24T13:10:41;101198.00;;;28.90
66403;BMP180;53212;52.112;5.144;2023-08-24T13:13:07;101211.80;;;28.80
66403;BMP180;53212;52.112;5.144;2023-08-24T13:15:33;101214.00;;;28.80
66403;BMP180;53212;52.112;5.144;2023-08-24T13:17:58;101225.00;;;28.80
66403;BMP180;53212;52.112;5.144;2023-08-24T13:20:24;101229.40;;;28.80
66403;BMP180;53212;52.112;5.144;2023-08-24T13:22:52;101229.40;;;28.80
66403;BMP180;53212;52.112;5.144;2023-08-24T13:25:18;101224.00;;;28.80
66403;BMP180;53212;52.112;5.144;2023-08-24T13:27:43;101215.20;;;28.86
66403;BMP180;53212;52.112;5.144;2023-08-24T13:30:09;101208.80;;;28.92
66403;BMP180;53212;52.112;5.144;2023-08-24T13:32:35;101215.80;;;29.10
66403;BMP180;53212;52.112;5.144;2023-08-24T13:35:02;101222.60;;;29.20
66403;BMP180;53212;52.112;5.144;2023-08-24T13:37:28;101226.00;;;29.30
66403;BMP180;53212;52.112;5.144;2023-08-24T13:39:53;101227.60;;;29.30
66403;BMP180;53212;52.112;5.144;2023-08-24T13:42:18;101221.40;;;29.14
66403;BMP180;53212;52.112;5.144;2023-08-24T13:44:47;101214.40;;;29.00
66403;BMP180;53212;52.112;5.144;2023-08-24T13:47:13;101211.60;;;28.90
66403;BMP180;53212;52.112;5.144;2023-08-24T13:49:38;101204.80;;;28.90
66403;BMP180;53212;52.112;5.144;2023-08-24T13:52:04;101198.80;;;29.00
66403;BMP180;53212;52.112;5.144;2023-08-24T13:54:30;101198.60;;;29.10
66403;BMP180;53212;52.112;5.144;2023-08-24T13:56:56;101197.80;;;29.10
66403;BMP180;53212;52.112;5.144;2023-08-24T13:59:22;101197.00;;;29.10
66403;BMP180;53212;52.112;5.144;2023-08-24T14:01:47;101200.60;;;29.00
66403;BMP180;53212;52.112;5.144;2023-08-24T14:04:13;101205.80;;;28.84
66403;BMP180;53212;52.112;5.144;2023-08-24T14:06:39;101199.20;;;28.64
66403;BMP180;53212;52.112;5.144;2023-08-24T14:09:05;101200.80;;;28.50
66403;BMP180;53212;52.112;5.144;2023-08-24T14:11:30;101199.00;;;28.30
66403;BMP180;53212;52.112;5.144;2023-08-24T14:13:57;101199.80;;;28.14